sensor_id;sensor_type;location;lat;lon;timestamp;P1;durP1;ratioP1;P2;durP2;ratioP2
29236;SDS011;16266;50.866;4.398;2023-07-30T00:02:17;1999.90;;;999.90;;
29236;SDS011;16266;50.866;4.398;2023-07-30T00:04:43;1999.90;;;999.90;;
29236;SDS011;16266;50.866;4.398;2023-07-30T00:07:09;928.05;;;657.35;;
29236;SDS011;16266;50.866;4.398;2023-07-30T00:09:36;1340.13;;;821.55;;
29236;SDS011;16266;50.866;4.398;2023-07-30T00:12:02;1999.90;;;999.90;;
29236;SDS011;16266;50.866;4.398;2023-07-30T00:14:28;1999.90;;;999.90;;
29236;SDS011;16266;50.866;4.398;2023-07-30T00:16:54;1999.90;;;999.90;;
29236;SDS011;16266;50.866;4.398;2023-07-30T00:19:20;913.13;;;852.22;;
29236;SDS011;16266;50.866;4.398;2023-07-30T00:21:45;965.83;;;895.63;;
29236;SDS011;16266;50.866;4.398;2023-07-30T00:24:12;972.10;;;902.00;;
29236;SDS011;16266;50.866;4.398;2023-07-30T00:29:31;1008.92;;;932.03;;
29236;SDS011;16266;50.866;4.398;2023-07-30T00:31:56;1024.90;;;946.15;;
29236;SDS011;16266;50.866;4.398;2023-07-30T00:34:22;1033.68;;;951.58;;
29236;SDS011;16266;50.866;4.398;2023-07-30T00:36:47;1031.82;;;949.97;;
29236;SDS011;16266;50.866;4.398;2023-07-30T00:39:13;1037.53;;;953.28;;
29236;SDS011;16266;50.866;4.398;2023-07-30T00:41:39;1049.13;;;963.22;;
29236;SDS011;16266;50.866;4.398;2023-07-30T00:44:04;1047.25;;;962.65;;
29236;SDS011;16266;50.866;4.398;2023-07-30T00:46:30;1038.13;;;955.17;;
29236;SDS011;16266;50.866;4.398;2023-07-30T00:48:56;1038.00;;;955.25;;
29236;SDS011;16266;50.866;4.398;2023-07-30T00:51:21;1506.68;;;968.13;;
29236;SDS011;16266;50.866;4.398;2023-07-30T00:53:49;1999.90;;;999.90;;
29236;SDS011;16266;50.866;4.398;2023-07-30T00:56:14;1999.90;;;999.90;;
29236;SDS011;16266;50.866;4.398;2023-07-30T00:58:41;1999.90;;;999.90;;
29236;SDS011;16266;50.866;4.398;2023-07-30T01:01:09;1267.40;;;957.05;;
29236;SDS011;16266;50.866;4.398;2023-07-30T01:03:36;1034.28;;;952.03;;
29236;SDS011;16266;50.866;4.398;2023-07-30T01:06:02;1034.10;;;951.78;;
29236;SDS011;16266;50.866;4.398;2023-07-30T01:08:27;1036.07;;;952.28;;
29236;SDS011;16266;50.866;4.398;2023-07-30T01:10:53;1023.20;;;942.70;;
29236;SDS011;16266;50.866;4.398;2023-07-30T01:13:20;999.03;;;923.70;;
29236;SDS011;16266;50.866;4.398;2023-07-30T01:15:46;998.88;;;923.22;;
29236;SDS011;16266;50.866;4.398;2023-07-30T01:18:12;965.58;;;895.08;;
29236;SDS011;16266;50.866;4.398;2023-07-30T01:20:38;917.10;;;854.63;;
29236;SDS011;16266;50.866;4.398;2023-07-30T01:23:04;1128.55;;;839.60;;
29236;SDS011;16266;50.866;4.398;2023-07-30T01:25:30;1340.35;;;822.25;;
29236;SDS011;16266;50.866;4.398;2023-07-30T01:27:59;589.67;;;560.77;;
29236;SDS011;16266;50.866;4.398;2023-07-30T01:30:28;662.88;;;628.22;;
29236;SDS011;16266;50.866;4.398;2023-07-30T01:32:58;747.13;;;706.28;;
29236;SDS011;16266;50.866;4.398;2023-07-30T01:35:26;694.83;;;659.08;;
29236;SDS011;16266;50.866;4.398;2023-07-30T01:37:52;581.83;;;553.63;;
29236;SDS011;16266;50.866;4.398;2023-07-30T01:40:19;486.95;;;464.60;;
29236;SDS011;16266;50.866;4.398;2023-07-30T01:42:46;461.13;;;440.75;;
29236;SDS011;16266;50.866;4.398;2023-07-30T01:45:13;483.45;;;462.40;;
29236;SDS011;16266;50.866;4.398;2023-07-30T01:47:38;496.50;;;474.77;;
29236;SDS011;16266;50.866;4.398;2023-07-30T01:50:04;537.22;;;513.33;;
29236;SDS011;16266;50.866;4.398;2023-07-30T01:52:30;565.78;;;539.85;;
29236;SDS011;16266;50.866;4.398;2023-07-30T01:54:56;532.78;;;508.77;;
29236;SDS011;16266;50.866;4.398;2023-07-30T01:57:23;520.25;;;496.65;;
29236;SDS011;16266;50.866;4.398;2023-07-30T01:59:49;526.53;;;502.85;;
29236;SDS011;16266;50.866;4.398;2023-07-30T02:02:15;510.20;;;486.90;;
29236;SDS011;16266;50.866;4.398;2023-07-30T02:04:40;475.27;;;453.27;;
29236;SDS011;16266;50.866;4.398;2023-07-30T02:07:06;478.77;;;457.13;;
29236;SDS011;16266;50.866;4.398;2023-07-30T02:09:31;418.35;;;400.05;;
29236;SDS011;16266;50.866;4.398;2023-07-30T02:11:57;397.42;;;380.58;;
29236;SDS011;16266;50.866;4.398;2023-07-30T02:14:23;373.38;;;357.73;;
29236;SDS011;16266;50.866;4.398;2023-07-30T02:16:48;385.73;;;369.35;;
29236;SDS011;16266;50.866;4.398;2023-07-30T02:19:14;370.95;;;355.40;;
29236;SDS011;16266;50.866;4.398;2023-07-30T02:21:39;382.95;;;366.70;;
29236;SDS011;16266;50.866;4.398;2023-07-30T02:24:08;396.10;;;379.38;;
29236;SDS011;16266;50.866;4.398;2023-07-30T02:26:36;391.27;;;374.02;;
29236;SDS011;16266;50.866;4.398;2023-07-30T02:29:02;457.20;;;436.88;;
29236;SDS011;16266;50.866;4.398;2023-07-30T02:31:27;518.85;;;494.88;;
29236;SDS011;16266;50.866;4.398;2023-07-30T02:33:53;517.75;;;493.80;;
29236;SDS011;16266;50.866;4.398;2023-07-30T02:36:19;565.38;;;538.47;;
29236;SDS011;16266;50.866;4.398;2023-07-30T02:38:44;554.30;;;529.17;;
29236;SDS011;16266;50.866;4.398;2023-07-30T02:41:10;478.80;;;457.80;;
29236;SDS011;16266;50.866;4.398;2023-07-30T02:43:35;445.95;;;426.20;;
29236;SDS011;16266;50.866;4.398;2023-07-30T02:46:01;468.95;;;447.45;;
29236;SDS011;16266;50.866;4.398;2023-07-30T02:48:27;557.13;;;530.17;;
29236;SDS011;16266;50.866;4.398;2023-07-30T02:50:52;714.80;;;677.45;;
29236;SDS011;16266;50.866;4.398;2023-07-30T02:53:18;774.40;;;731.67;;
29236;SDS011;16266;50.866;4.398;2023-07-30T02:55:44;745.75;;;705.40;;
29236;SDS011;16266;50.866;4.398;2023-07-30T02:58:09;750.45;;;709.83;;
29236;SDS011;16266;50.866;4.398;2023-07-30T03:00:35;767.15;;;724.30;;
29236;SDS011;16266;50.866;4.398;2023-07-30T03:03:01;740.60;;;699.40;;
29236;SDS011;16266;50.866;4.398;2023-07-30T03:05:27;1300.38;;;785.08;;
29236;SDS011;16266;50.866;4.398;2023-07-30T03:07:53;1999.90;;;999.90;;
29236;SDS011;16266;50.866;4.398;2023-07-30T03:10:19;1999.90;;;999.90;;
29236;SDS011;16266;50.866;4.398;2023-07-30T03:12:44;1999.90;;;999.90;;
29236;SDS011;16266;50.866;4.398;2023-07-30T03:15:10;1999.90;;;999.90;;
29236;SDS011;16266;50.866;4.398;2023-07-30T03:17:35;1999.90;;;999.90;;
29236;SDS011;16266;50.866;4.398;2023-07-30T03:20:01;1999.90;;;999.90;;
29236;SDS011;16266;50.866;4.398;2023-07-30T03:22:28;1999.90;;;999.90;;
29236;SDS011;16266;50.866;4.398;2023-07-30T03:24:53;1999.90;;;999.90;;
29236;SDS011;16266;50.866;4.398;2023-07-30T03:27:21;1999.90;;;999.90;;
29236;SDS011;16266;50.866;4.398;2023-07-30T03:32:46;692.65;;;656.28;;
29236;SDS011;16266;50.866;4.398;2023-07-30T03:35:12;518.08;;;493.25;;
29236;SDS011;16266;50.866;4.398;2023-07-30T03:37:37;1274.68;;;761.55;;
29236;SDS011;16266;50.866;4.398;2023-07-30T03:40:03;518.22;;;493.98;;
29236;SDS011;16266;50.866;4.398;2023-07-30T03:42:29;593.15;;;564.47;;
29236;SDS011;16266;50.866;4.398;2023-07-30T03:44:55;599.28;;;570.67;;
29236;SDS011;16266;50.866;4.398;2023-07-30T03:47:20;612.35;;;583.53;;
29236;SDS011;16266;50.866;4.398;2023-07-30T03:49:46;564.28;;;538.60;;
29236;SDS011;16266;50.866;4.398;2023-07-30T03:52:12;498.35;;;475.95;;
29236;SDS011;16266;50.866;4.398;2023-07-30T03:54:37;424.83;;;406.23;;
29236;SDS011;16266;50.866;4.398;2023-07-30T03:57:03;426.38;;;408.25;;
29236;SDS011;16266;50.866;4.398;2023-07-30T03:59:28;412.30;;;394.80;;
29236;SDS011;16266;50.866;4.398;2023-07-30T04:01:54;393.42;;;376.73;;
29236;SDS011;16266;50.866;4.398;2023-07-30T04:04:20;377.10;;;360.75;;
29236;SDS011;16266;50.866;4.398;2023-07-30T04:06:46;353.70;;;338.67;;
29236;SDS011;16266;50.866;4.398;2023-07-30T04:09:11;360.40;;;345.15;;
29236;SDS011;16266;50.866;4.398;2023-07-30T04:11:37;353.50;;;338.63;;
29236;SDS011;16266;50.866;4.398;2023-07-30T04:14:03;360.48;;;345.08;;
29236;SDS011;16266;50.866;4.398;2023-07-30T04:16:30;413.92;;;395.73;;
29236;SDS011;16266;50.866;4.398;2023-07-30T04:18:55;512.55;;;489.40;;
29236;SDS011;16266;50.866;4.398;2023-07-30T04:21:21;509.05;;;486.45;;
29236;SDS011;16266;50.866;4.398;2023-07-30T04:23:47;477.38;;;455.48;;
29236;SDS011;16266;50.866;4.398;2023-07-30T04:26:13;661.33;;;628.05;;
29236;SDS011;16266;50.866;4.398;2023-07-30T04:28:38;765.17;;;723.53;;
29236;SDS011;16266;50.866;4.398;2023-07-30T04:31:04;714.90;;;676.70;;
29236;SDS011;16266;50.866;4.398;2023-07-30T04:33:30;1339.78;;;822.20;;
29236;SDS011;16266;50.866;4.398;2023-07-30T04:35:55;648.45;;;615.75;;
29236;SDS011;16266;50.866;4.398;2023-07-30T04:38:21;956.97;;;684.08;;
29236;SDS011;16266;50.866;4.398;2023-07-30T04:40:46;966.60;;;693.58;;
29236;SDS011;16266;50.866;4.398;2023-07-30T04:43:12;595.08;;;565.97;;
29236;SDS011;16266;50.866;4.398;2023-07-30T04:45:38;580.53;;;552.72;;
29236;SDS011;16266;50.866;4.398;2023-07-30T04:48:03;1999.90;;;999.90;;
29236;SDS011;16266;50.866;4.398;2023-07-30T04:50:29;905.35;;;635.92;;
29236;SDS011;16266;50.866;4.398;2023-07-30T04:52:55;1637.72;;;881.13;;
29236;SDS011;16266;50.866;4.398;2023-07-30T04:55:21;1639.45;;;882.63;;
29236;SDS011;16266;50.866;4.398;2023-07-30T04:57:46;1251.85;;;740.20;;
29236;SDS011;16266;50.866;4.398;2023-07-30T05:00:12;1999.90;;;999.90;;
29236;SDS011;16266;50.866;4.398;2023-07-30T05:02:38;1641.15;;;884.30;;
29236;SDS011;16266;50.866;4.398;2023-07-30T05:05:03;1303.18;;;788.28;;
29236;SDS011;16266;50.866;4.398;2023-07-30T05:07:29;1999.90;;;999.90;;
29236;SDS011;16266;50.866;4.398;2023-07-30T05:09:55;507.48;;;483.48;;
29236;SDS011;16266;50.866;4.398;2023-07-30T05:12:20;527.60;;;502.75;;
29236;SDS011;16266;50.866;4.398;2023-07-30T05:14:46;573.60;;;546.85;;
29236;SDS011;16266;50.866;4.398;2023-07-30T05:17:12;611.67;;;582.83;;
29236;SDS011;16266;50.866;4.398;2023-07-30T05:19:37;571.00;;;544.95;;
29236;SDS011;16266;50.866;4.398;2023-07-30T05:22:03;496.10;;;474.13;;
29236;SDS011;16266;50.866;4.398;2023-07-30T05:24:30;419.08;;;401.25;;
29236;SDS011;16266;50.866;4.398;2023-07-30T05:26:56;353.33;;;338.40;;
29236;SDS011;16266;50.866;4.398;2023-07-30T05:29:22;323.23;;;309.35;;
29236;SDS011;16266;50.866;4.398;2023-07-30T05:31:47;313.42;;;300.40;;
29236;SDS011;16266;50.866;4.398;2023-07-30T05:34:13;321.13;;;308.02;;
29236;SDS011;16266;50.866;4.398;2023-07-30T05:36:38;322.98;;;309.70;;
29236;SDS011;16266;50.866;4.398;2023-07-30T05:39:04;317.52;;;304.30;;
29236;SDS011;16266;50.866;4.398;2023-07-30T05:41:30;304.58;;;292.13;;
29236;SDS011;16266;50.866;4.398;2023-07-30T05:43:55;293.50;;;281.48;;
29236;SDS011;16266;50.866;4.398;2023-07-30T05:46:21;272.83;;;260.95;;
29236;SDS011;16266;50.866;4.398;2023-07-30T05:48:47;292.55;;;280.58;;
29236;SDS011;16266;50.866;4.398;2023-07-30T05:51:12;311.58;;;299.25;;
29236;SDS011;16266;50.866;4.398;2023-07-30T05:53:38;328.63;;;315.25;;
29236;SDS011;16266;50.866;4.398;2023-07-30T05:56:03;294.17;;;281.50;;
29236;SDS011;16266;50.866;4.398;2023-07-30T05:58:29;268.77;;;257.95;;
29236;SDS011;16266;50.866;4.398;2023-07-30T06:00:56;261.05;;;250.55;;
29236;SDS011;16266;50.866;4.398;2023-07-30T06:03:22;263.23;;;252.40;;
29236;SDS011;16266;50.866;4.398;2023-07-30T06:05:47;255.15;;;244.73;;
29236;SDS011;16266;50.866;4.398;2023-07-30T06:08:13;270.83;;;259.27;;
29236;SDS011;16266;50.866;4.398;2023-07-30T06:10:39;279.42;;;267.52;;
29236;SDS011;16266;50.866;4.398;2023-07-30T06:13:05;310.23;;;296.83;;
29236;SDS011;16266;50.866;4.398;2023-07-30T06:15:32;328.08;;;313.77;;
29236;SDS011;16266;50.866;4.398;2023-07-30T06:17:57;437.80;;;418.05;;
29236;SDS011;16266;50.866;4.398;2023-07-30T06:20:23;512.38;;;488.40;;
29236;SDS011;16266;50.866;4.398;2023-07-30T06:22:49;604.22;;;575.35;;
29236;SDS011;16266;50.866;4.398;2023-07-30T06:25:15;579.13;;;551.75;;
29236;SDS011;16266;50.866;4.398;2023-07-30T06:27:42;572.85;;;545.22;;
29236;SDS011;16266;50.866;4.398;2023-07-30T06:30:09;589.53;;;561.13;;
29236;SDS011;16266;50.866;4.398;2023-07-30T06:32:35;638.50;;;607.17;;
29236;SDS011;16266;50.866;4.398;2023-07-30T06:35:01;650.40;;;618.35;;
29236;SDS011;16266;50.866;4.398;2023-07-30T06:37:28;684.90;;;650.63;;
29236;SDS011;16266;50.866;4.398;2023-07-30T06:39:53;712.20;;;675.28;;
29236;SDS011;16266;50.866;4.398;2023-07-30T06:42:20;697.03;;;660.88;;
29236;SDS011;16266;50.866;4.398;2023-07-30T06:44:46;671.65;;;638.10;;
29236;SDS011;16266;50.866;4.398;2023-07-30T06:47:11;625.63;;;595.28;;
29236;SDS011;16266;50.866;4.398;2023-07-30T06:49:37;628.78;;;598.42;;
29236;SDS011;16266;50.866;4.398;2023-07-30T06:52:03;634.13;;;602.67;;
29236;SDS011;16266;50.866;4.398;2023-07-30T06:54:29;611.10;;;581.92;;
29236;SDS011;16266;50.866;4.398;2023-07-30T06:56:54;609.78;;;580.47;;
29236;SDS011;16266;50.866;4.398;2023-07-30T06:59:20;670.92;;;637.28;;
29236;SDS011;16266;50.866;4.398;2023-07-30T07:01:46;586.83;;;558.28;;
29236;SDS011;16266;50.866;4.398;2023-07-30T07:04:11;351.88;;;335.77;;
29236;SDS011;16266;50.866;4.398;2023-07-30T07:06:37;237.20;;;227.80;;
29236;SDS011;16266;50.866;4.398;2023-07-30T07:09:03;269.30;;;258.45;;
29236;SDS011;16266;50.866;4.398;2023-07-30T07:11:28;179.98;;;172.80;;
29236;SDS011;16266;50.866;4.398;2023-07-30T07:13:54;380.70;;;363.85;;
29236;SDS011;16266;50.866;4.398;2023-07-30T07:16:20;294.60;;;282.17;;
29236;SDS011;16266;50.866;4.398;2023-07-30T07:18:46;447.65;;;426.55;;
29236;SDS011;16266;50.866;4.398;2023-07-30T07:21:13;120.13;;;115.47;;
29236;SDS011;16266;50.866;4.398;2023-07-30T07:23:39;112.35;;;108.10;;
29236;SDS011;16266;50.866;4.398;2023-07-30T07:26:05;75.68;;;72.50;;
29236;SDS011;16266;50.866;4.398;2023-07-30T07:28:31;107.65;;;103.50;;
29236;SDS011;16266;50.866;4.398;2023-07-30T07:30:57;100.63;;;96.80;;
29236;SDS011;16266;50.866;4.398;2023-07-30T07:33:23;52.08;;;50.17;;
29236;SDS011;16266;50.866;4.398;2023-07-30T07:35:48;79.68;;;76.78;;
29236;SDS011;16266;50.866;4.398;2023-07-30T07:38:14;27.40;;;26.33;;
29236;SDS011;16266;50.866;4.398;2023-07-30T07:40:40;43.10;;;41.17;;
29236;SDS011;16266;50.866;4.398;2023-07-30T07:43:06;31.77;;;30.63;;
29236;SDS011;16266;50.866;4.398;2023-07-30T07:45:32;45.75;;;44.08;;
29236;SDS011;16266;50.866;4.398;2023-07-30T07:47:58;61.72;;;59.30;;
29236;SDS011;16266;50.866;4.398;2023-07-30T07:50:24;80.82;;;77.78;;
29236;SDS011;16266;50.866;4.398;2023-07-30T07:52:49;72.43;;;69.60;;
29236;SDS011;16266;50.866;4.398;2023-07-30T07:55:16;62.13;;;59.78;;
29236;SDS011;16266;50.866;4.398;2023-07-30T07:57:42;62.50;;;60.22;;
29236;SDS011;16266;50.866;4.398;2023-07-30T08:00:07;71.57;;;68.57;;
29236;SDS011;16266;50.866;4.398;2023-07-30T08:02:34;70.35;;;67.70;;
29236;SDS011;16266;50.866;4.398;2023-07-30T08:04:59;60.17;;;58.03;;
29236;SDS011;16266;50.866;4.398;2023-07-30T08:07:25;31.88;;;30.80;;
29236;SDS011;16266;50.866;4.398;2023-07-30T08:09:51;20.77;;;20.08;;
29236;SDS011;16266;50.866;4.398;2023-07-30T08:12:17;24.30;;;23.50;;
29236;SDS011;16266;50.866;4.398;2023-07-30T08:14:44;73.88;;;71.15;;
29236;SDS011;16266;50.866;4.398;2023-07-30T08:17:10;36.35;;;35.08;;
29236;SDS011;16266;50.866;4.398;2023-07-30T08:19:35;24.08;;;23.02;;
29236;SDS011;16266;50.866;4.398;2023-07-30T08:22:01;29.25;;;28.00;;
29236;SDS011;16266;50.866;4.398;2023-07-30T08:24:27;25.27;;;24.45;;
29236;SDS011;16266;50.866;4.398;2023-07-30T08:26:52;21.92;;;20.65;;
29236;SDS011;16266;50.866;4.398;2023-07-30T08:29:18;32.92;;;31.80;;
29236;SDS011;16266;50.866;4.398;2023-07-30T08:31:43;49.00;;;47.20;;
29236;SDS011;16266;50.866;4.398;2023-07-30T08:34:09;91.90;;;88.35;;
29236;SDS011;16266;50.866;4.398;2023-07-30T08:36:34;80.90;;;77.75;;
29236;SDS011;16266;50.866;4.398;2023-07-30T08:39:01;48.47;;;46.72;;
29236;SDS011;16266;50.866;4.398;2023-07-30T08:41:27;34.67;;;32.95;;
29236;SDS011;16266;50.866;4.398;2023-07-30T08:43:53;29.02;;;27.23;;
29236;SDS011;16266;50.866;4.398;2023-07-30T08:46:18;30.52;;;29.50;;
29236;SDS011;16266;50.866;4.398;2023-07-30T08:48:44;28.05;;;26.95;;
29236;SDS011;16266;50.866;4.398;2023-07-30T08:51:11;46.10;;;44.30;;
29236;SDS011;16266;50.866;4.398;2023-07-30T08:53:38;56.80;;;54.38;;
29236;SDS011;16266;50.866;4.398;2023-07-30T08:56:04;29.15;;;28.15;;
29236;SDS011;16266;50.866;4.398;2023-07-30T08:58:31;25.10;;;23.80;;
29236;SDS011;16266;50.866;4.398;2023-07-30T09:01:00;88.88;;;85.60;;
29236;SDS011;16266;50.866;4.398;2023-07-30T09:03:31;122.10;;;117.45;;
29236;SDS011;16266;50.866;4.398;2023-07-30T09:05:59;71.07;;;68.43;;
29236;SDS011;16266;50.866;4.398;2023-07-30T09:08:24;22.25;;;21.50;;
29236;SDS011;16266;50.866;4.398;2023-07-30T09:10:50;164.80;;;158.10;;
29236;SDS011;16266;50.866;4.398;2023-07-30T09:13:25;272.38;;;260.48;;
29236;SDS011;16266;50.866;4.398;2023-07-30T09:15:50;226.68;;;217.68;;
29236;SDS011;16266;50.866;4.398;2023-07-30T09:18:16;308.92;;;296.20;;
29236;SDS011;16266;50.866;4.398;2023-07-30T09:20:43;192.90;;;185.20;;
29236;SDS011;16266;50.866;4.398;2023-07-30T09:23:10;83.93;;;80.70;;
29236;SDS011;16266;50.866;4.398;2023-07-30T09:25:36;148.00;;;142.40;;
29236;SDS011;16266;50.866;4.398;2023-07-30T09:28:02;103.07;;;98.30;;
29236;SDS011;16266;50.866;4.398;2023-07-30T09:30:28;177.10;;;170.30;;
29236;SDS011;16266;50.866;4.398;2023-07-30T09:32:55;216.88;;;208.45;;
29236;SDS011;16266;50.866;4.398;2023-07-30T09:35:22;327.55;;;314.55;;
29236;SDS011;16266;50.866;4.398;2023-07-30T09:40:34;159.38;;;153.07;;
29236;SDS011;16266;50.866;4.398;2023-07-30T09:43:02;139.80;;;134.20;;
29236;SDS011;16266;50.866;4.398;2023-07-30T09:45:32;82.15;;;79.03;;
29236;SDS011;16266;50.866;4.398;2023-07-30T09:48:00;214.65;;;205.98;;
29236;SDS011;16266;50.866;4.398;2023-07-30T09:50:28;185.60;;;178.13;;
29236;SDS011;16266;50.866;4.398;2023-07-30T09:52:55;142.52;;;137.00;;
29236;SDS011;16266;50.866;4.398;2023-07-30T09:55:22;182.80;;;175.57;;
29236;SDS011;16266;50.866;4.398;2023-07-30T09:57:48;212.27;;;203.80;;
29236;SDS011;16266;50.866;4.398;2023-07-30T10:00:14;630.40;;;597.33;;
29236;SDS011;16266;50.866;4.398;2023-07-30T10:02:45;783.42;;;737.47;;
29236;SDS011;16266;50.866;4.398;2023-07-30T10:05:18;491.83;;;469.27;;
29236;SDS011;16266;50.866;4.398;2023-07-30T10:08:02;484.95;;;462.50;;
29236;SDS011;16266;50.866;4.398;2023-07-30T10:10:32;554.40;;;528.47;;
29236;SDS011;16266;50.866;4.398;2023-07-30T10:13:00;633.92;;;600.40;;
29236;SDS011;16266;50.866;4.398;2023-07-30T10:15:28;716.28;;;677.53;;
29236;SDS011;16266;50.866;4.398;2023-07-30T10:17:55;895.50;;;832.30;;
29236;SDS011;16266;50.866;4.398;2023-07-30T10:22:52;1046.70;;;957.42;;
29236;SDS011;16266;50.866;4.398;2023-07-30T10:25:25;1088.88;;;989.67;;
29236;SDS011;16266;50.866;4.398;2023-07-30T10:28:08;799.63;;;741.40;;
29236;SDS011;16266;50.866;4.398;2023-07-30T10:30:34;790.38;;;741.75;;
29236;SDS011;16266;50.866;4.398;2023-07-30T10:33:01;558.10;;;529.10;;
29236;SDS011;16266;50.866;4.398;2023-07-30T10:35:46;590.95;;;561.83;;
29236;SDS011;16266;50.866;4.398;2023-07-30T10:38:12;420.83;;;401.88;;
29236;SDS011;16266;50.866;4.398;2023-07-30T10:43:34;269.48;;;258.48;;
29236;SDS011;16266;50.866;4.398;2023-07-30T10:46:06;196.23;;;188.35;;
29236;SDS011;16266;50.866;4.398;2023-07-30T10:48:38;264.25;;;253.30;;
29236;SDS011;16266;50.866;4.398;2023-07-30T10:51:06;122.18;;;117.55;;
29236;SDS011;16266;50.866;4.398;2023-07-30T10:53:33;479.88;;;457.83;;
29236;SDS011;16266;50.866;4.398;2023-07-30T10:56:01;347.83;;;332.85;;
29236;SDS011;16266;50.866;4.398;2023-07-30T10:58:37;537.40;;;509.55;;
29236;SDS011;16266;50.866;4.398;2023-07-30T11:01:06;501.73;;;476.20;;
29236;SDS011;16266;50.866;4.398;2023-07-30T11:03:33;638.88;;;604.13;;
29236;SDS011;16266;50.866;4.398;2023-07-30T11:06:02;586.15;;;556.17;;
29236;SDS011;16266;50.866;4.398;2023-07-30T11:08:46;573.75;;;544.30;;
29236;SDS011;16266;50.866;4.398;2023-07-30T11:11:12;415.63;;;397.33;;
29236;SDS011;16266;50.866;4.398;2023-07-30T11:13:38;152.55;;;146.52;;
29236;SDS011;16266;50.866;4.398;2023-07-30T11:16:06;270.88;;;259.85;;
29236;SDS011;16266;50.866;4.398;2023-07-30T11:18:32;98.15;;;94.47;;
29236;SDS011;16266;50.866;4.398;2023-07-30T11:21:06;166.98;;;160.02;;
29236;SDS011;16266;50.866;4.398;2023-07-30T11:23:32;100.25;;;96.57;;
29236;SDS011;16266;50.866;4.398;2023-07-30T11:26:00;31.60;;;30.50;;
29236;SDS011;16266;50.866;4.398;2023-07-30T11:28:30;45.75;;;44.15;;
29236;SDS011;16266;50.866;4.398;2023-07-30T11:31:02;53.08;;;51.15;;
29236;SDS011;16266;50.866;4.398;2023-07-30T11:33:51;39.78;;;38.20;;
29236;SDS011;16266;50.866;4.398;2023-07-30T11:36:22;49.58;;;47.67;;
29236;SDS011;16266;50.866;4.398;2023-07-30T11:38:50;39.33;;;37.97;;
29236;SDS011;16266;50.866;4.398;2023-07-30T11:41:18;36.23;;;35.00;;
29236;SDS011;16266;50.866;4.398;2023-07-30T11:43:46;25.65;;;24.65;;
29236;SDS011;16266;50.866;4.398;2023-07-30T11:46:13;23.92;;;23.15;;
29236;SDS011;16266;50.866;4.398;2023-07-30T11:48:45;19.13;;;18.52;;
29236;SDS011;16266;50.866;4.398;2023-07-30T11:51:19;28.83;;;27.88;;
29236;SDS011;16266;50.866;4.398;2023-07-30T11:53:47;31.58;;;30.55;;
29236;SDS011;16266;50.866;4.398;2023-07-30T11:58:47;21.40;;;20.70;;
29236;SDS011;16266;50.866;4.398;2023-07-30T12:01:14;17.63;;;16.35;;
29236;SDS011;16266;50.866;4.398;2023-07-30T12:06:10;17.35;;;16.73;;
29236;SDS011;16266;50.866;4.398;2023-07-30T12:08:38;14.38;;;13.90;;
29236;SDS011;16266;50.866;4.398;2023-07-30T12:11:05;14.20;;;13.70;;
29236;SDS011;16266;50.866;4.398;2023-07-30T12:13:32;14.10;;;13.60;;
29236;SDS011;16266;50.866;4.398;2023-07-30T12:16:00;13.57;;;12.82;;
29236;SDS011;16266;50.866;4.398;2023-07-30T12:18:26;13.25;;;12.85;;
29236;SDS011;16266;50.866;4.398;2023-07-30T12:20:55;14.35;;;13.70;;
29236;SDS011;16266;50.866;4.398;2023-07-30T12:23:22;16.38;;;15.80;;
29236;SDS011;16266;50.866;4.398;2023-07-30T12:25:49;14.65;;;14.15;;
29236;SDS011;16266;50.866;4.398;2023-07-30T12:28:15;13.48;;;13.02;;
29236;SDS011;16266;50.866;4.398;2023-07-30T12:30:41;12.65;;;12.25;;
29236;SDS011;16266;50.866;4.398;2023-07-30T12:33:07;14.13;;;13.52;;
29236;SDS011;16266;50.866;4.398;2023-07-30T12:35:33;14.27;;;13.68;;
29236;SDS011;16266;50.866;4.398;2023-07-30T12:37:59;14.20;;;13.70;;
29236;SDS011;16266;50.866;4.398;2023-07-30T12:40:25;13.48;;;12.98;;
29236;SDS011;16266;50.866;4.398;2023-07-30T12:42:50;13.82;;;13.25;;
29236;SDS011;16266;50.866;4.398;2023-07-30T12:45:16;13.48;;;12.98;;
29236;SDS011;16266;50.866;4.398;2023-07-30T12:47:42;12.80;;;12.40;;
29236;SDS011;16266;50.866;4.398;2023-07-30T12:50:08;14.23;;;13.82;;
29236;SDS011;16266;50.866;4.398;2023-07-30T12:52:34;14.73;;;14.23;;
29236;SDS011;16266;50.866;4.398;2023-07-30T12:55:00;13.48;;;12.98;;
29236;SDS011;16266;50.866;4.398;2023-07-30T12:57:26;12.93;;;12.52;;
29236;SDS011;16266;50.866;4.398;2023-07-30T12:59:53;14.18;;;13.65;;
29236;SDS011;16266;50.866;4.398;2023-07-30T13:02:18;13.20;;;12.70;;
29236;SDS011;16266;50.866;4.398;2023-07-30T13:04:44;14.38;;;13.88;;
29236;SDS011;16266;50.866;4.398;2023-07-30T13:07:10;14.23;;;13.55;;
29236;SDS011;16266;50.866;4.398;2023-07-30T13:09:35;12.43;;;12.02;;
29236;SDS011;16266;50.866;4.398;2023-07-30T13:12:01;13.18;;;12.70;;
29236;SDS011;16266;50.866;4.398;2023-07-30T13:14:27;12.50;;;12.10;;
29236;SDS011;16266;50.866;4.398;2023-07-30T13:16:52;13.27;;;12.85;;
29236;SDS011;16266;50.866;4.398;2023-07-30T13:19:18;12.85;;;12.45;;
29236;SDS011;16266;50.866;4.398;2023-07-30T13:21:43;13.27;;;12.68;;
29236;SDS011;16266;50.866;4.398;2023-07-30T13:24:09;14.45;;;13.95;;
29236;SDS011;16266;50.866;4.398;2023-07-30T13:26:35;12.70;;;12.27;;
29236;SDS011;16266;50.866;4.398;2023-07-30T13:29:01;12.63;;;12.23;;
29236;SDS011;16266;50.866;4.398;2023-07-30T13:31:26;13.98;;;13.57;;
29236;SDS011;16266;50.866;4.398;2023-07-30T13:33:52;14.02;;;13.43;;
29236;SDS011;16266;50.866;4.398;2023-07-30T13:36:18;14.68;;;14.18;;
29236;SDS011;16266;50.866;4.398;2023-07-30T13:38:44;12.30;;;11.90;;
29236;SDS011;16266;50.866;4.398;2023-07-30T13:41:09;14.13;;;13.35;;
29236;SDS011;16266;50.866;4.398;2023-07-30T13:43:35;12.20;;;11.80;;
29236;SDS011;16266;50.866;4.398;2023-07-30T13:46:02;12.63;;;12.13;;
29236;SDS011;16266;50.866;4.398;2023-07-30T13:48:28;13.93;;;13.43;;
29236;SDS011;16266;50.866;4.398;2023-07-30T13:50:54;14.93;;;14.43;;
29236;SDS011;16266;50.866;4.398;2023-07-30T13:53:20;13.57;;;13.07;;
29236;SDS011;16266;50.866;4.398;2023-07-30T13:55:45;14.82;;;14.13;;
29236;SDS011;16266;50.866;4.398;2023-07-30T13:58:11;13.30;;;12.88;;
29236;SDS011;16266;50.866;4.398;2023-07-30T14:00:40;13.82;;;13.05;;
29236;SDS011;16266;50.866;4.398;2023-07-30T14:03:07;14.77;;;13.38;;
29236;SDS011;16266;50.866;4.398;2023-07-30T14:05:33;12.50;;;12.10;;
29236;SDS011;16266;50.866;4.398;2023-07-30T14:07:59;12.95;;;12.45;;
29236;SDS011;16266;50.866;4.398;2023-07-30T14:10:25;12.75;;;12.32;;
29236;SDS011;16266;50.866;4.398;2023-07-30T14:12:51;12.90;;;12.40;;
29236;SDS011;16266;50.866;4.398;2023-07-30T14:15:17;14.60;;;14.00;;
29236;SDS011;16266;50.866;4.398;2023-07-30T14:17:43;13.25;;;12.75;;
29236;SDS011;16266;50.866;4.398;2023-07-30T14:20:09;13.75;;;12.93;;